sensor_id;sensor_type;location;lat;lon;timestamp;P1;durP1;ratioP1;P2;durP2;ratioP2
63784;SDS011;49927;48.146;11.420;2022-12-29T00:00:16;29.00;;;9.50;;
63784;SDS011;49927;48.146;11.420;2022-12-29T00:02:43;8.13;;;4.05;;
63784;SDS011;49927;48.146;11.420;2022-12-29T00:05:09;11.05;;;3.58;;
63784;SDS011;49927;48.146;11.420;2022-12-29T00:07:34;3.88;;;2.28;;
63784;SDS011;49927;48.146;11.420;2022-12-29T00:10:00;31.75;;;8.70;;
63784;SDS011;49927;48.146;11.420;2022-12-29T00:12:25;20.20;;;6.35;;
63784;SDS011;49927;48.146;11.420;2022-12-29T00:14:51;11.02;;;3.30;;
63784;SDS011;49927;48.146;11.420;2022-12-29T00:17:16;6.55;;;2.67;;
63784;SDS011;49927;48.146;11.420;2022-12-29T00:19:43;14.38;;;4.47;;
63784;SDS011;49927;48.146;11.420;2022-12-29T00:22:09;15.10;;;4.70;;
63784;SDS011;49927;48.146;11.420;2022-12-29T00:24:34;19.33;;;6.70;;
63784;SDS011;49927;48.146;11.420;2022-12-29T00:27:08;4.50;;;2.25;;
63784;SDS011;49927;48.146;11.420;2022-12-29T00:29:35;17.63;;;5.40;;
63784;SDS011;49927;48.146;11.420;2022-12-29T00:32:01;9.45;;;4.35;;
63784;SDS011;49927;48.146;11.420;2022-12-29T00:34:27;25.98;;;8.27;;
63784;SDS011;49927;48.146;11.420;2022-12-29T00:36:53;6.82;;;3.70;;
63784;SDS011;49927;48.146;11.420;2022-12-29T00:39:19;33.58;;;10.20;;
63784;SDS011;49927;48.146;11.420;2022-12-29T00:41:44;10.65;;;3.95;;
63784;SDS011;49927;48.146;11.420;2022-12-29T00:44:12;3.35;;;1.83;;
63784;SDS011;49927;48.146;11.420;2022-12-29T00:46:38;13.43;;;6.57;;
63784;SDS011;49927;48.146;11.420;2022-12-29T00:49:05;4.38;;;2.60;;
63784;SDS011;49927;48.146;11.420;2022-12-29T00:51:31;3.40;;;1.75;;
63784;SDS011;49927;48.146;11.420;2022-12-29T00:53:58;3.58;;;2.10;;
63784;SDS011;49927;48.146;11.420;2022-12-29T00:56:23;3.95;;;2.30;;
63784;SDS011;49927;48.146;11.420;2022-12-29T00:58:49;2.42;;;1.58;;
63784;SDS011;49927;48.146;11.420;2022-12-29T01:01:14;4.40;;;2.70;;
63784;SDS011;49927;48.146;11.420;2022-12-29T01:03:40;3.20;;;2.03;;
63784;SDS011;49927;48.146;11.420;2022-12-29T01:06:06;5.07;;;2.42;;
63784;SDS011;49927;48.146;11.420;2022-12-29T01:08:33;3.95;;;1.85;;
63784;SDS011;49927;48.146;11.420;2022-12-29T01:11:00;2.63;;;1.30;;
63784;SDS011;49927;48.146;11.420;2022-12-29T01:13:26;1.90;;;1.70;;
63784;SDS011;49927;48.146;11.420;2022-12-29T01:15:51;2.30;;;1.20;;
63784;SDS011;49927;48.146;11.420;2022-12-29T01:18:17;1.73;;;1.63;;
63784;SDS011;49927;48.146;11.420;2022-12-29T01:20:43;2.33;;;1.40;;
63784;SDS011;49927;48.146;11.420;2022-12-29T01:23:08;2.58;;;1.35;;
63784;SDS011;49927;48.146;11.420;2022-12-29T01:25:34;2.05;;;1.20;;
63784;SDS011;49927;48.146;11.420;2022-12-29T01:28:00;1.77;;;1.13;;
63784;SDS011;49927;48.146;11.420;2022-12-29T01:30:26;2.08;;;1.23;;
63784;SDS011;49927;48.146;11.420;2022-12-29T01:32:51;2.03;;;1.20;;
63784;SDS011;49927;48.146;11.420;2022-12-29T01:35:17;1.05;;;0.88;;
63784;SDS011;49927;48.146;11.420;2022-12-29T01:37:42;4.63;;;1.85;;
63784;SDS011;49927;48.146;11.420;2022-12-29T01:40:08;2.45;;;1.50;;
63784;SDS011;49927;48.146;11.420;2022-12-29T01:42:34;1.65;;;1.20;;
63784;SDS011;49927;48.146;11.420;2022-12-29T01:45:02;2.65;;;1.45;;
63784;SDS011;49927;48.146;11.420;2022-12-29T01:47:33;2.65;;;1.30;;
63784;SDS011;49927;48.146;11.420;2022-12-29T01:50:03;1.95;;;1.50;;
63784;SDS011;49927;48.146;11.420;2022-12-29T01:52:31;2.08;;;1.50;;
63784;SDS011;49927;48.146;11.420;2022-12-29T01:54:57;5.47;;;2.85;;
63784;SDS011;49927;48.146;11.420;2022-12-29T01:57:23;4.68;;;1.88;;
63784;SDS011;49927;48.146;11.420;2022-12-29T01:59:53;5.88;;;1.67;;
63784;SDS011;49927;48.146;11.420;2022-12-29T02:02:22;2.88;;;1.65;;
63784;SDS011;49927;48.146;11.420;2022-12-29T02:04:48;3.70;;;1.23;;
63784;SDS011;49927;48.146;11.420;2022-12-29T02:07:15;4.45;;;1.20;;
63784;SDS011;49927;48.146;11.420;2022-12-29T02:09:43;2.70;;;1.40;;
63784;SDS011;49927;48.146;11.420;2022-12-29T02:12:09;1.27;;;1.00;;
63784;SDS011;49927;48.146;11.420;2022-12-29T02:14:34;4.90;;;1.30;;
63784;SDS011;49927;48.146;11.420;2022-12-29T02:17:01;1.75;;;1.17;;
63784;SDS011;49927;48.146;11.420;2022-12-29T02:19:40;2.05;;;1.10;;
63784;SDS011;49927;48.146;11.420;2022-12-29T02:22:29;2.40;;;1.37;;
63784;SDS011;49927;48.146;11.420;2022-12-29T02:25:19;3.75;;;1.23;;
63784;SDS011;49927;48.146;11.420;2022-12-29T02:27:58;1.55;;;1.00;;
63784;SDS011;49927;48.146;11.420;2022-12-29T02:30:40;2.15;;;1.20;;
63784;SDS011;49927;48.146;11.420;2022-12-29T02:33:10;5.32;;;1.63;;
63784;SDS011;49927;48.146;11.420;2022-12-29T02:35:44;2.35;;;1.40;;
63784;SDS011;49927;48.146;11.420;2022-12-29T02:38:14;1.52;;;1.00;;
63784;SDS011;49927;48.146;11.420;2022-12-29T02:40:46;1.33;;;1.00;;
63784;SDS011;49927;48.146;11.420;2022-12-29T02:43:17;1.70;;;1.20;;
63784;SDS011;49927;48.146;11.420;2022-12-29T02:45:50;3.15;;;1.50;;
63784;SDS011;49927;48.146;11.420;2022-12-29T02:48:20;7.57;;;2.90;;
63784;SDS011;49927;48.146;11.420;2022-12-29T02:50:51;5.35;;;2.33;;
63784;SDS011;49927;48.146;11.420;2022-12-29T02:53:19;1.95;;;1.15;;
63784;SDS011;49927;48.146;11.420;2022-12-29T02:55:47;4.75;;;1.70;;
63784;SDS011;49927;48.146;11.420;2022-12-29T02:58:17;2.67;;;1.30;;
63784;SDS011;49927;48.146;11.420;2022-12-29T03:00:47;3.22;;;1.35;;
63784;SDS011;49927;48.146;11.420;2022-12-29T03:03:22;1.25;;;1.15;;
63784;SDS011;49927;48.146;11.420;2022-12-29T03:06:00;3.65;;;1.50;;
63784;SDS011;49927;48.146;11.420;2022-12-29T03:08:34;2.63;;;0.88;;
63784;SDS011;49927;48.146;11.420;2022-12-29T03:11:04;1.85;;;1.17;;
63784;SDS011;49927;48.146;11.420;2022-12-29T03:13:33;2.35;;;1.17;;
63784;SDS011;49927;48.146;11.420;2022-12-29T03:16:04;1.55;;;0.90;;
63784;SDS011;49927;48.146;11.420;2022-12-29T03:21:22;1.23;;;0.90;;
63784;SDS011;49927;48.146;11.420;2022-12-29T03:23:52;1.00;;;0.73;;
63784;SDS011;49927;48.146;11.420;2022-12-29T03:26:17;1.92;;;1.00;;
63784;SDS011;49927;48.146;11.420;2022-12-29T03:28:45;4.40;;;1.75;;
63784;SDS011;49927;48.146;11.420;2022-12-29T03:31:14;1.40;;;0.95;;
63784;SDS011;49927;48.146;11.420;2022-12-29T03:33:40;1.20;;;0.80;;
63784;SDS011;49927;48.146;11.420;2022-12-29T03:36:07;1.67;;;1.00;;
63784;SDS011;49927;48.146;11.420;2022-12-29T03:38:35;1.45;;;0.90;;
63784;SDS011;49927;48.146;11.420;2022-12-29T03:41:07;1.52;;;1.05;;
63784;SDS011;49927;48.146;11.420;2022-12-29T03:43:35;1.77;;;1.00;;
63784;SDS011;49927;48.146;11.420;2022-12-29T03:46:01;1.35;;;1.20;;
63784;SDS011;49927;48.146;11.420;2022-12-29T03:48:28;4.10;;;1.13;;
63784;SDS011;49927;48.146;11.420;2022-12-29T03:50:53;1.92;;;0.90;;
63784;SDS011;49927;48.146;11.420;2022-12-29T03:53:19;1.17;;;0.98;;
63784;SDS011;49927;48.146;11.420;2022-12-29T03:55:44;2.40;;;1.10;;
63784;SDS011;49927;48.146;11.420;2022-12-29T03:58:10;1.98;;;0.90;;
63784;SDS011;49927;48.146;11.420;2022-12-29T04:00:35;1.70;;;1.00;;
63784;SDS011;49927;48.146;11.420;2022-12-29T04:03:01;1.20;;;0.70;;
63784;SDS011;49927;48.146;11.420;2022-12-29T04:05:27;1.08;;;0.65;;
63784;SDS011;49927;48.146;11.420;2022-12-29T04:07:53;2.40;;;1.23;;
63784;SDS011;49927;48.146;11.420;2022-12-29T04:10:18;1.77;;;0.82;;
63784;SDS011;49927;48.146;11.420;2022-12-29T04:12:44;1.08;;;0.82;;
63784;SDS011;49927;48.146;11.420;2022-12-29T04:15:09;0.80;;;0.68;;
63784;SDS011;49927;48.146;11.420;2022-12-29T04:17:35;1.20;;;0.98;;
63784;SDS011;49927;48.146;11.420;2022-12-29T04:20:01;1.75;;;1.08;;
63784;SDS011;49927;48.146;11.420;2022-12-29T04:22:27;1.92;;;1.00;;
63784;SDS011;49927;48.146;11.420;2022-12-29T04:24:53;1.88;;;0.98;;
63784;SDS011;49927;48.146;11.420;2022-12-29T04:27:18;1.25;;;1.08;;
63784;SDS011;49927;48.146;11.420;2022-12-29T04:29:44;1.73;;;0.80;;
63784;SDS011;49927;48.146;11.420;2022-12-29T04:32:09;4.35;;;1.38;;
63784;SDS011;49927;48.146;11.420;2022-12-29T04:34:35;1.95;;;0.90;;
63784;SDS011;49927;48.146;11.420;2022-12-29T04:37:00;1.45;;;0.90;;
63784;SDS011;49927;48.146;11.420;2022-12-29T04:39:27;3.30;;;0.90;;
63784;SDS011;49927;48.146;11.420;2022-12-29T04:41:52;2.45;;;1.40;;
63784;SDS011;49927;48.146;11.420;2022-12-29T04:44:18;3.05;;;1.30;;
63784;SDS011;49927;48.146;11.420;2022-12-29T04:46:43;0.85;;;0.80;;
63784;SDS011;49927;48.146;11.420;2022-12-29T04:49:09;2.42;;;1.02;;
63784;SDS011;49927;48.146;11.420;2022-12-29T04:51:34;1.33;;;0.88;;
63784;SDS011;49927;48.146;11.420;2022-12-29T04:54:00;2.25;;;1.55;;
63784;SDS011;49927;48.146;11.420;2022-12-29T04:56:27;2.33;;;1.50;;
63784;SDS011;49927;48.146;11.420;2022-12-29T04:58:52;1.35;;;1.05;;
63784;SDS011;49927;48.146;11.420;2022-12-29T05:01:18;1.33;;;1.10;;
63784;SDS011;49927;48.146;11.420;2022-12-29T05:03:43;1.25;;;1.13;;
63784;SDS011;49927;48.146;11.420;2022-12-29T05:06:09;3.58;;;1.33;;
63784;SDS011;49927;48.146;11.420;2022-12-29T05:08:34;1.45;;;0.80;;
63784;SDS011;49927;48.146;11.420;2022-12-29T05:10:59;1.20;;;0.98;;
63784;SDS011;49927;48.146;11.420;2022-12-29T05:13:26;1.52;;;0.88;;
63784;SDS011;49927;48.146;11.420;2022-12-29T05:15:52;1.73;;;1.15;;
63784;SDS011;49927;48.146;11.420;2022-12-29T05:18:18;3.15;;;1.27;;
63784;SDS011;49927;48.146;11.420;2022-12-29T05:20:44;2.22;;;1.05;;
63784;SDS011;49927;48.146;11.420;2022-12-29T05:23:10;1.60;;;1.10;;
63784;SDS011;49927;48.146;11.420;2022-12-29T05:25:35;2.67;;;1.00;;
63784;SDS011;49927;48.146;11.420;2022-12-29T05:28:01;2.03;;;1.10;;
63784;SDS011;49927;48.146;11.420;2022-12-29T05:30:28;1.80;;;0.88;;
63784;SDS011;49927;48.146;11.420;2022-12-29T05:32:53;2.83;;;1.15;;
63784;SDS011;49927;48.146;11.420;2022-12-29T05:35:19;1.42;;;0.88;;
63784;SDS011;49927;48.146;11.420;2022-12-29T05:37:44;1.00;;;0.68;;
63784;SDS011;49927;48.146;11.420;2022-12-29T05:40:10;1.50;;;1.27;;
63784;SDS011;49927;48.146;11.420;2022-12-29T05:42:36;1.25;;;1.00;;
63784;SDS011;49927;48.146;11.420;2022-12-29T05:45:01;2.20;;;1.17;;
63784;SDS011;49927;48.146;11.420;2022-12-29T05:47:28;0.90;;;0.80;;
63784;SDS011;49927;48.146;11.420;2022-12-29T05:49:54;3.85;;;1.60;;
63784;SDS011;49927;48.146;11.420;2022-12-29T05:52:19;2.80;;;1.33;;
63784;SDS011;49927;48.146;11.420;2022-12-29T05:54:45;2.10;;;1.00;;
63784;SDS011;49927;48.146;11.420;2022-12-29T05:57:10;1.23;;;0.80;;
63784;SDS011;49927;48.146;11.420;2022-12-29T05:59:36;3.30;;;1.67;;
63784;SDS011;49927;48.146;11.420;2022-12-29T06:02:01;3.92;;;1.67;;
63784;SDS011;49927;48.146;11.420;2022-12-29T06:04:28;2.70;;;0.93;;
63784;SDS011;49927;48.146;11.420;2022-12-29T06:06:54;1.40;;;0.88;;
63784;SDS011;49927;48.146;11.420;2022-12-29T06:09:19;2.55;;;1.10;;
63784;SDS011;49927;48.146;11.420;2022-12-29T06:11:44;1.65;;;0.95;;
63784;SDS011;49927;48.146;11.420;2022-12-29T06:14:10;1.90;;;0.90;;
63784;SDS011;49927;48.146;11.420;2022-12-29T06:16:35;1.48;;;1.00;;
63784;SDS011;49927;48.146;11.420;2022-12-29T06:19:01;2.03;;;0.90;;
63784;SDS011;49927;48.146;11.420;2022-12-29T06:21:28;3.38;;;0.77;;
63784;SDS011;49927;48.146;11.420;2022-12-29T06:23:53;2.53;;;1.10;;
63784;SDS011;49927;48.146;11.420;2022-12-29T06:26:19;1.17;;;0.90;;
63784;SDS011;49927;48.146;11.420;2022-12-29T06:28:44;3.95;;;0.88;;
63784;SDS011;49927;48.146;11.420;2022-12-29T06:31:10;2.83;;;1.50;;
63784;SDS011;49927;48.146;11.420;2022-12-29T06:33:35;2.15;;;0.98;;
63784;SDS011;49927;48.146;11.420;2022-12-29T06:36:01;3.55;;;1.25;;
63784;SDS011;49927;48.146;11.420;2022-12-29T06:38:28;1.13;;;0.80;;
63784;SDS011;49927;48.146;11.420;2022-12-29T06:40:53;0.77;;;0.75;;
63784;SDS011;49927;48.146;11.420;2022-12-29T06:43:19;1.67;;;1.20;;
63784;SDS011;49927;48.146;11.420;2022-12-29T06:45:44;1.02;;;0.85;;
63784;SDS011;49927;48.146;11.420;2022-12-29T06:48:10;1.77;;;0.80;;
63784;SDS011;49927;48.146;11.420;2022-12-29T06:50:35;1.67;;;0.90;;
63784;SDS011;49927;48.146;11.420;2022-12-29T06:53:01;1.30;;;0.85;;
63784;SDS011;49927;48.146;11.420;2022-12-29T06:55:28;0.88;;;0.75;;
63784;SDS011;49927;48.146;11.420;2022-12-29T06:57:54;1.00;;;0.80;;
63784;SDS011;49927;48.146;11.420;2022-12-29T07:00:19;0.98;;;0.70;;
63784;SDS011;49927;48.146;11.420;2022-12-29T07:02:45;2.47;;;1.10;;
63784;SDS011;49927;48.146;11.420;2022-12-29T07:05:10;1.65;;;0.98;;
63784;SDS011;49927;48.146;11.420;2022-12-29T07:07:36;2.67;;;0.98;;
63784;SDS011;49927;48.146;11.420;2022-12-29T07:10:02;1.17;;;0.75;;
63784;SDS011;49927;48.146;11.420;2022-12-29T07:12:29;2.35;;;1.23;;
63784;SDS011;49927;48.146;11.420;2022-12-29T07:14:55;1.70;;;0.90;;
63784;SDS011;49927;48.146;11.420;2022-12-29T07:17:20;1.85;;;0.82;;
63784;SDS011;49927;48.146;11.420;2022-12-29T07:19:46;1.60;;;0.90;;
63784;SDS011;49927;48.146;11.420;2022-12-29T07:22:11;1.42;;;0.88;;
63784;SDS011;49927;48.146;11.420;2022-12-29T07:24:37;1.00;;;0.80;;
63784;SDS011;49927;48.146;11.420;2022-12-29T07:27:02;2.92;;;0.75;;
63784;SDS011;49927;48.146;11.420;2022-12-29T07:29:29;1.52;;;0.85;;
63784;SDS011;49927;48.146;11.420;2022-12-29T07:31:55;1.42;;;0.93;;
63784;SDS011;49927;48.146;11.420;2022-12-29T07:34:20;3.13;;;1.10;;
63784;SDS011;49927;48.146;11.420;2022-12-29T07:36:46;2.20;;;0.88;;
63784;SDS011;49927;48.146;11.420;2022-12-29T07:39:11;2.35;;;1.10;;
63784;SDS011;49927;48.146;11.420;2022-12-29T07:41:37;2.25;;;1.02;;
63784;SDS011;49927;48.146;11.420;2022-12-29T07:44:02;2.75;;;1.00;;
63784;SDS011;49927;48.146;11.420;2022-12-29T07:46:30;1.00;;;0.65;;
63784;SDS011;49927;48.146;11.420;2022-12-29T07:48:55;1.85;;;1.42;;
63784;SDS011;49927;48.146;11.420;2022-12-29T07:51:21;2.70;;;1.38;;
63784;SDS011;49927;48.146;11.420;2022-12-29T07:53:46;1.08;;;0.75;;
63784;SDS011;49927;48.146;11.420;2022-12-29T07:56:12;1.65;;;0.88;;
63784;SDS011;49927;48.146;11.420;2022-12-29T07:58:37;2.15;;;1.58;;
63784;SDS011;49927;48.146;11.420;2022-12-29T08:01:03;1.08;;;0.70;;
63784;SDS011;49927;48.146;11.420;2022-12-29T08:03:30;2.65;;;0.80;;
63784;SDS011;49927;48.146;11.420;2022-12-29T08:05:56;2.35;;;1.00;;
63784;SDS011;49927;48.146;11.420;2022-12-29T08:08:21;1.80;;;1.20;;
63784;SDS011;49927;48.146;11.420;2022-12-29T08:10:47;3.17;;;1.60;;
63784;SDS011;49927;48.146;11.420;2022-12-29T08:13:12;1.45;;;1.35;;
63784;SDS011;49927;48.146;11.420;2022-12-29T08:15:38;2.58;;;1.65;;
63784;SDS011;49927;48.146;11.420;2022-12-29T08:18:04;2.42;;;1.10;;
63784;SDS011;49927;48.146;11.420;2022-12-29T08:20:30;2.88;;;1.00;;
63784;SDS011;49927;48.146;11.420;2022-12-29T08:22:56;1.55;;;1.00;;
63784;SDS011;49927;48.146;11.420;2022-12-29T08:25:22;1.95;;;1.15;;
63784;SDS011;49927;48.146;11.420;2022-12-29T08:27:47;2.58;;;1.10;;
63784;SDS011;49927;48.146;11.420;2022-12-29T08:30:13;2.15;;;1.55;;
63784;SDS011;49927;48.146;11.420;2022-12-29T08:32:38;2.10;;;1.40;;
63784;SDS011;49927;48.146;11.420;2022-12-29T08:35:04;3.00;;;1.65;;
63784;SDS011;49927;48.146;11.420;2022-12-29T08:37:33;2.85;;;1.42;;
63784;SDS011;49927;48.146;11.420;2022-12-29T08:39:58;4.68;;;1.42;;
63784;SDS011;49927;48.146;11.420;2022-12-29T08:42:24;2.05;;;1.38;;
63784;SDS011;49927;48.146;11.420;2022-12-29T08:44:49;2.38;;;1.10;;
63784;SDS011;49927;48.146;11.420;2022-12-29T08:47:15;2.55;;;1.30;;
63784;SDS011;49927;48.146;11.420;2022-12-29T08:49:40;2.38;;;1.17;;
63784;SDS011;49927;48.146;11.420;2022-12-29T08:52:07;2.80;;;1.35;;
63784;SDS011;49927;48.146;11.420;2022-12-29T08:54:34;1.42;;;1.10;;
63784;SDS011;49927;48.146;11.420;2022-12-29T08:56:59;2.17;;;1.40;;
63784;SDS011;49927;48.146;11.420;2022-12-29T08:59:25;2.13;;;0.95;;
63784;SDS011;49927;48.146;11.420;2022-12-29T09:01:50;2.97;;;1.00;;
63784;SDS011;49927;48.146;11.420;2022-12-29T09:04:16;1.88;;;0.90;;
63784;SDS011;49927;48.146;11.420;2022-12-29T09:06:42;5.57;;;1.20;;
63784;SDS011;49927;48.146;11.420;2022-12-29T09:09:07;2.90;;;1.23;;
63784;SDS011;49927;48.146;11.420;2022-12-29T09:11:34;4.38;;;0.85;;
63784;SDS011;49927;48.146;11.420;2022-12-29T09:14:00;2.35;;;1.20;;
63784;SDS011;49927;48.146;11.420;2022-12-29T09:16:25;1.70;;;1.05;;
63784;SDS011;49927;48.146;11.420;2022-12-29T09:18:51;1.08;;;0.85;;
63784;SDS011;49927;48.146;11.420;2022-12-29T09:21:16;2.28;;;0.90;;
63784;SDS011;49927;48.146;11.420;2022-12-29T09:23:42;2.40;;;1.23;;
63784;SDS011;49927;48.146;11.420;2022-12-29T09:26:07;1.83;;;1.10;;
63784;SDS011;49927;48.146;11.420;2022-12-29T09:28:34;1.50;;;1.05;;
63784;SDS011;49927;48.146;11.420;2022-12-29T09:31:00;2.50;;;0.80;;
63784;SDS011;49927;48.146;11.420;2022-12-29T09:33:26;2.83;;;1.33;;
63784;SDS011;49927;48.146;11.420;2022-12-29T09:35:52;1.70;;;0.95;;
63784;SDS011;49927;48.146;11.420;2022-12-29T09:38:19;2.90;;;1.13;;
63784;SDS011;49927;48.146;11.420;2022-12-29T09:40:45;0.75;;;0.73;;
63784;SDS011;49927;48.146;11.420;2022-12-29T09:43:24;1.63;;;1.15;;
63784;SDS011;49927;48.146;11.420;2022-12-29T09:46:08;2.00;;;0.80;;
63784;SDS011;49927;48.146;11.420;2022-12-29T09:48:39;3.20;;;1.25;;
63784;SDS011;49927;48.146;11.420;2022-12-29T09:51:08;3.20;;;1.00;;
63784;SDS011;49927;48.146;11.420;2022-12-29T09:53:36;2.53;;;0.90;;
63784;SDS011;49927;48.146;11.420;2022-12-29T09:56:03;2.00;;;1.25;;
63784;SDS011;49927;48.146;11.420;2022-12-29T09:58:32;4.13;;;1.15;;
63784;SDS011;49927;48.146;11.420;2022-12-29T10:01:03;3.25;;;1.48;;
63784;SDS011;49927;48.146;11.420;2022-12-29T10:03:32;1.67;;;1.10;;
63784;SDS011;49927;48.146;11.420;2022-12-29T10:06:04;1.60;;;1.10;;
63784;SDS011;49927;48.146;11.420;2022-12-29T10:08:34;2.92;;;1.25;;
63784;SDS011;49927;48.146;11.420;2022-12-29T10:11:04;1.73;;;1.20;;
63784;SDS011;49927;48.146;11.420;2022-12-29T10:13:38;2.33;;;1.30;;
63784;SDS011;49927;48.146;11.420;2022-12-29T10:16:13;4.07;;;2.05;;
63784;SDS011;49927;48.146;11.420;2022-12-29T10:18:48;4.38;;;1.30;;
63784;SDS011;49927;48.146;11.420;2022-12-29T10:21:29;2.60;;;1.33;;
63784;SDS011;49927;48.146;11.420;2022-12-29T10:24:02;2.70;;;1.00;;
63784;SDS011;49927;48.146;11.420;2022-12-29T10:26:31;3.33;;;1.40;;
63784;SDS011;49927;48.146;11.420;2022-12-29T10:29:02;2.70;;;1.77;;
63784;SDS011;49927;48.146;11.420;2022-12-29T10:31:32;2.35;;;1.33;;
63784;SDS011;49927;48.146;11.420;2022-12-29T10:34:02;2.45;;;1.40;;
63784;SDS011;49927;48.146;11.420;2022-12-29T10:36:33;2.55;;;1.65;;
63784;SDS011;49927;48.146;11.420;2022-12-29T10:39:01;5.80;;;1.40;;
63784;SDS011;49927;48.146;11.420;2022-12-29T10:41:32;4.93;;;1.60;;
63784;SDS011;49927;48.146;11.420;2022-12-29T10:44:02;6.25;;;1.27;;
63784;SDS011;49927;48.146;11.420;2022-12-29T10:46:27;1.02;;;0.85;;
63784;SDS011;49927;48.146;11.420;2022-12-29T10:48:57;2.42;;;1.42;;
63784;SDS011;49927;48.146;11.420;2022-12-29T10:51:24;2.67;;;1.55;;
63784;SDS011;49927;48.146;11.420;2022-12-29T10:53:53;2.97;;;1.45;;
63784;SDS011;49927;48.146;11.420;2022-12-29T10:56:26;4.45;;;1.67;;
63784;SDS011;49927;48.146;11.420;2022-12-29T10:58:54;8.25;;;2.17;;
63784;SDS011;49927;48.146;11.420;2022-12-29T11:01:22;4.75;;;1.60;;
63784;SDS011;49927;48.146;11.420;2022-12-29T11:03:51;3.70;;;1.98;;
63784;SDS011;49927;48.146;11.420;2022-12-29T11:06:24;1.25;;;1.08;;
63784;SDS011;49927;48.146;11.420;2022-12-29T11:08:52;1.75;;;0.88;;
63784;SDS011;49927;48.146;11.420;2022-12-29T11:11:24;2.83;;;1.65;;
63784;SDS011;49927;48.146;11.420;2022-12-29T11:13:54;6.75;;;2.33;;
63784;SDS011;49927;48.146;11.420;2022-12-29T11:16:26;0.80;;;0.63;;
63784;SDS011;49927;48.146;11.420;2022-12-29T11:18:54;2.03;;;1.00;;
63784;SDS011;49927;48.146;11.420;2022-12-29T11:21:25;1.35;;;0.98;;
63784;SDS011;49927;48.146;11.420;2022-12-29T11:23:55;1.55;;;0.90;;
63784;SDS011;49927;48.146;11.420;2022-12-29T11:26:22;2.72;;;1.10;;
63784;SDS011;49927;48.146;11.420;2022-12-29T11:29:01;3.17;;;1.23;;
63784;SDS011;49927;48.146;11.420;2022-12-29T11:31:39;3.03;;;1.35;;
63784;SDS011;49927;48.146;11.420;2022-12-29T11:34:07;2.53;;;1.58;;
63784;SDS011;49927;48.146;11.420;2022-12-29T11:36:33;2.55;;;1.15;;
63784;SDS011;49927;48.146;11.420;2022-12-29T11:38:58;3.63;;;1.23;;
63784;SDS011;49927;48.146;11.420;2022-12-29T11:41:25;2.67;;;0.90;;
63784;SDS011;49927;48.146;11.420;2022-12-29T11:43:52;2.80;;;1.02;;
63784;SDS011;49927;48.146;11.420;2022-12-29T11:46:18;2.85;;;1.30;;
63784;SDS011;49927;48.146;11.420;2022-12-29T11:48:45;1.40;;;0.70;;
63784;SDS011;49927;48.146;11.420;2022-12-29T11:51:13;5.45;;;1.35;;
63784;SDS011;49927;48.146;11.420;2022-12-29T11:53:47;1.58;;;0.80;;
63784;SDS011;49927;48.146;11.420;2022-12-29T11:56:16;1.13;;;0.80;;
63784;SDS011;49927;48.146;11.420;2022-12-29T11:58:44;1.83;;;0.95;;
63784;SDS011;49927;48.146;11.420;2022-12-29T12:01:11;1.23;;;0.57;;
63784;SDS011;49927;48.146;11.420;2022-12-29T12:03:42;2.10;;;1.35;;
63784;SDS011;49927;48.146;11.420;2022-12-29T12:06:14;0.98;;;0.63;;
63784;SDS011;49927;48.146;11.420;2022-12-29T12:08:41;2.15;;;0.93;;
63784;SDS011;49927;48.146;11.420;2022-12-29T12:11:09;1.50;;;0.80;;
63784;SDS011;49927;48.146;11.420;2022-12-29T12:13:37;2.15;;;0.90;;
63784;SDS011;49927;48.146;11.420;2022-12-29T12:16:08;3.05;;;1.20;;
63784;SDS011;49927;48.146;11.420;2022-12-29T12:18:37;3.08;;;1.48;;
63784;SDS011;49927;48.146;11.420;2022-12-29T12:21:08;1.55;;;0.85;;
63784;SDS011;49927;48.146;11.420;2022-12-29T12:23:44;1.38;;;1.00;;
63784;SDS011;49927;48.146;11.420;2022-12-29T12:26:21;0.95;;;0.70;;
63784;SDS011;49927;48.146;11.420;2022-12-29T12:28:50;2.25;;;1.15;;
63784;SDS011;49927;48.146;11.420;2022-12-29T12:31:18;4.28;;;0.90;;
63784;SDS011;49927;48.146;11.420;2022-12-29T12:33:50;3.22;;;1.33;;
63784;SDS011;49927;48.146;11.420;2022-12-29T12:36:24;2.10;;;0.95;;
63784;SDS011;49927;48.146;11.420;2022-12-29T12:39:11;1.92;;;1.13;;
63784;SDS011;49927;48.146;11.420;2022-12-29T12:41:39;1.25;;;0.70;;
63784;SDS011;49927;48.146;11.420;2022-12-29T12:44:12;2.45;;;1.00;;
63784;SDS011;49927;48.146;11.420;2022-12-29T12:55:43;2.00;;;0.68;;
63784;SDS011;49927;48.146;11.420;2022-12-29T12:58:15;1.75;;;0.80;;
63784;SDS011;49927;48.146;11.420;2022-12-29T13:00:48;1.60;;;1.05;;
63784;SDS011;49927;48.146;11.420;2022-12-29T13:03:17;1.20;;;0.98;;
63784;SDS011;49927;48.146;11.420;2022-12-29T13:08:41;2.22;;;1.30;;
63784;SDS011;49927;48.146;11.420;2022-12-29T13:11:16;2.92;;;1.15;;
63784;SDS011;49927;48.146;11.420;2022-12-29T13:16:31;2.67;;;0.90;;
63784;SDS011;49927;48.146;11.420;2022-12-29T13:19:01;7.20;;;1.15;;
63784;SDS011;49927;48.146;11.420;2022-12-29T13:21:34;4.65;;;1.60;;
63784;SDS011;49927;48.146;11.420;2022-12-29T13:24:09;2.23;;;1.17;;
63784;SDS011;49927;48.146;11.420;2022-12-29T13:26:39;2.30;;;1.33;;
63784;SDS011;49927;48.146;11.420;2022-12-29T13:29:11;3.25;;;1.50;;
63784;SDS011;49927;48.146;11.420;2022-12-29T13:31:40;5.20;;;1.95;;
63784;SDS011;49927;48.146;11.420;2022-12-29T13:34:11;2.75;;;1.00;;
63784;SDS011;49927;48.146;11.420;2022-12-29T13:36:42;2.83;;;0.80;;
63784;SDS011;49927;48.146;11.420;2022-12-29T13:39:13;3.53;;;1.50;;
63784;SDS011;49927;48.146;11.420;2022-12-29T13:41:42;1.42;;;1.10;;
63784;SDS011;49927;48.146;11.420;2022-12-29T13:44:11;4.78;;;1.30;;
63784;SDS011;49927;48.146;11.420;2022-12-29T13:46:42;2.45;;;1.00;;
63784;SDS011;49927;48.146;11.420;2022-12-29T13:49:11;3.67;;;0.88;;
63784;SDS011;49927;48.146;11.420;2022-12-29T13:51:40;2.00;;;1.15;;
63784;SDS011;49927;48.146;11.420;2022-12-29T13:54:13;2.95;;;1.00;;
63784;SDS011;49927;48.146;11.420;2022-12-29T13:56:45;3.75;;;1.10;;
63784;SDS011;49927;48.146;11.420;2022-12-29T13:59:16;1.33;;;0.70;;
63784;SDS011;49927;48.146;11.420;2022-12-29T14:01:46;1.73;;;0.85;;
63784;SDS011;49927;48.146;11.420;2022-12-29T14:04:20;0.73;;;0.60;;
63784;SDS011;49927;48.146;11.420;2022-12-29T14:06:47;5.63;;;1.10;;
63784;SDS011;49927;48.146;11.420;2022-12-29T14:09:30;1.13;;;0.80;;
63784;SDS011;49927;48.146;11.420;2022-12-29T14:12:09;4.60;;;0.88;;
63784;SDS011;49927;48.146;11.420;2022-12-29T14:14:44;5.13;;;0.90;;
63784;SDS011;49927;48.146;11.420;2022-12-29T14:17:10;2.00;;;0.70;;
63784;SDS011;49927;48.146;11.420;2022-12-29T14:19:38;3.13;;;0.70;;
63784;SDS011;49927;48.146;11.420;2022-12-29T14:22:05;1.20;;;0.80;;
63784;SDS011;49927;48.146;11.420;2022-12-29T14:24:42;3.25;;;0.80;;
63784;SDS011;49927;48.146;11.420;2022-12-29T14:33:14;2.63;;;1.25;;
63784;SDS011;49927;48.146;11.420;2022-12-29T14:35:40;0.70;;;0.70;;
63784;SDS011;49927;48.146;11.420;2022-12-29T14:38:13;1.25;;;1.00;;
63784;SDS011;49927;48.146;11.420;2022-12-29T14:40:45;1.65;;;0.93;;
63784;SDS011;49927;48.146;11.420;2022-12-29T14:43:11;1.95;;;1.17;;
63784;SDS011;49927;48.146;11.420;2022-12-29T14:45:37;1.80;;;1.10;;
63784;SDS011;49927;48.146;11.420;2022-12-29T14:48:19;5.43;;;2.05;;
63784;SDS011;49927;48.146;11.420;2022-12-29T14:50:47;5.50;;;2.08;;
63784;SDS011;49927;48.146;11.420;2022-12-29T14:56:09;3.70;;;1.88;;
63784;SDS011;49927;48.146;11.420;2022-12-29T14:58:37;3.75;;;1.75;;
63784;SDS011;49927;48.146;11.420;2022-12-29T15:01:12;3.00;;;2.38;;
63784;SDS011;49927;48.146;11.420;2022-12-29T15:06:09;12.95;;;4.13;;